createdAt,value
2022-08-04T00:01:40.158Z,15.15
2022-08-04T00:07:14.133Z,15.08
2022-08-04T00:12:47.824Z,15.38
2022-08-04T00:18:15.814Z,15.22
2022-08-04T00:24:11.405Z,14.79
2022-08-04T00:29:27.813Z,14.96
2022-08-04T00:34:50.859Z,14.98
2022-08-04T00:40:53.771Z,15.02
2022-08-04T00:46:43.772Z,14.91
2022-08-04T00:52:32.598Z,14.41
2022-08-04T00:58:07.944Z,14.73
2022-08-04T01:03:51.083Z,14.70
2022-08-04T01:09:28.293Z,14.71
2022-08-04T01:15:08.673Z,14.39
2022-08-04T01:20:39.542Z,14.70
2022-08-04T01:26:42.555Z,14.80
2022-08-04T01:32:14.822Z,14.44
2022-08-04T01:37:58.154Z,14.76
2022-08-04T01:43:21.335Z,14.71
2022-08-04T01:48:46.784Z,14.74
2022-08-04T01:54:11.063Z,14.55
2022-08-04T01:59:37.365Z,14.66
2022-08-04T02:04:58.982Z,14.68
2022-08-04T02:10:36.416Z,14.60
2022-08-04T02:16:02.221Z,14.63
2022-08-04T02:21:42.752Z,14.59
2022-08-04T02:27:07.242Z,14.57
2022-08-04T02:32:31.391Z,14.59
2022-08-04T02:38:17.564Z,14.64
2022-08-04T02:43:51.330Z,14.60
2022-08-04T02:49:18.072Z,14.66
2022-08-04T02:54:43.433Z,14.74
2022-08-04T03:00:05.914Z,14.86
2022-08-04T03:06:01.391Z,14.91
2022-08-04T03:11:43.089Z,15.02
2022-08-04T03:17:53.260Z,15.07
2022-08-04T03:23:55.592Z,15.16
2022-08-04T03:29:58.313Z,15.61
2022-08-04T03:36:04.522Z,15.81
2022-08-04T03:42:04.220Z,16.02
2022-08-04T03:47:54.944Z,16.20
2022-08-04T03:53:33.293Z,16.34
2022-08-04T03:58:58.084Z,16.54
2022-08-04T04:04:58.724Z,16.72
2022-08-04T04:10:25.991Z,16.92
2022-08-04T04:16:20.403Z,17.05
2022-08-04T04:22:23.943Z,17.38
2022-08-04T04:28:44.583Z,17.63
2022-08-04T04:34:09.375Z,17.96
2022-08-04T04:40:17.762Z,18.30
2022-08-04T04:46:10.322Z,18.92
2022-08-04T04:51:50.202Z,20.98
2022-08-04T04:57:53.144Z,22.67
2022-08-04T05:03:38.941Z,23.11
2022-08-04T05:09:08.556Z,23.41
2022-08-04T05:14:48.853Z,23.74
2022-08-04T05:20:26.187Z,24.40
2022-08-04T05:26:00.596Z,25.12
2022-08-04T05:31:30.111Z,25.72
2022-08-04T05:36:56.660Z,26.18
2022-08-04T05:42:22.212Z,26.69
2022-08-04T05:47:48.349Z,26.89
2022-08-04T05:53:12.275Z,27.32
2022-08-04T05:58:36.941Z,27.40
2022-08-04T06:04:08.050Z,27.73
2022-08-04T06:09:34.270Z,28.09
2022-08-04T06:14:59.830Z,28.10
2022-08-04T06:20:27.254Z,28.10
2022-08-04T06:25:59.713Z,28.33
2022-08-04T06:32:26.968Z,28.25
2022-08-04T06:37:43.179Z,28.45
2022-08-04T06:43:08.192Z,28.42
2022-08-04T06:48:37.089Z,28.21
2022-08-04T06:54:07.118Z,28.20
2022-08-04T06:59:33.334Z,28.05
2022-08-04T07:05:07.624Z,28.07
2022-08-04T07:10:34.199Z,28.07
2022-08-04T07:16:03.549Z,28.17
2022-08-04T07:21:27.922Z,28.29
2022-08-04T07:26:53.409Z,28.45
2022-08-04T07:32:19.618Z,28.63
2022-08-04T07:37:53.169Z,28.61
2022-08-04T07:43:49.777Z,28.69
2022-08-04T07:49:13.049Z,28.75
2022-08-04T07:54:55.930Z,28.82
2022-08-04T08:00:18.093Z,28.84
2022-08-04T08:05:54.616Z,28.84
2022-08-04T08:11:24.570Z,29.15
2022-08-04T08:17:07.136Z,28.91
2022-08-04T08:22:29.977Z,28.81
2022-08-04T08:27:56.204Z,28.85
2022-08-04T08:33:19.321Z,28.20
2022-08-04T08:38:57.426Z,28.70
2022-08-04T08:44:58.134Z,28.98
2022-08-04T08:50:53.291Z,28.53
2022-08-04T08:56:30.947Z,28.96
2022-08-04T09:02:18.989Z,29.22
2022-08-04T09:08:06.088Z,29.31
2022-08-04T09:13:35.188Z,29.50
2022-08-04T09:19:38.524Z,29.29
2022-08-04T09:25:08.029Z,28.94
2022-08-04T09:30:54.250Z,28.65
2022-08-04T09:36:36.802Z,28.89
2022-08-04T09:42:14.569Z,29.18
2022-08-04T09:47:52.436Z,29.41
2022-08-04T09:53:21.901Z,29.77
2022-08-04T09:59:01.494Z,29.79
2022-08-04T10:04:26.638Z,29.47
2022-08-04T10:10:49.272Z,29.00
2022-08-04T10:16:36.242Z,28.63
2022-08-04T10:22:29.203Z,28.42
2022-08-04T10:28:01.289Z,28.15
2022-08-04T10:33:25.412Z,28.19
2022-08-04T10:38:57.365Z,28.14
2022-08-04T10:44:57.832Z,28.05
2022-08-04T10:50:27.679Z,27.76
2022-08-04T10:56:07.545Z,27.80
2022-08-04T11:01:59.510Z,27.91
2022-08-04T11:07:20.193Z,28.23
2022-08-04T11:12:44.250Z,28.85
2022-08-04T11:18:16.564Z,29.40
2022-08-04T11:23:47.416Z,29.53
2022-08-04T11:29:19.005Z,29.58
2022-08-04T11:34:52.596Z,29.72
2022-08-04T11:40:38.248Z,29.96
2022-08-04T11:46:23.371Z,30.20
2022-08-04T11:51:46.174Z,30.24
2022-08-04T11:57:08.749Z,30.26
2022-08-04T12:03:07.415Z,30.16
2022-08-04T12:08:56.784Z,30.01
2022-08-04T12:14:38.672Z,30.06
2022-08-04T12:20:31.978Z,30.16
2022-08-04T12:25:52.813Z,30.02
2022-08-04T12:31:42.564Z,30.35
2022-08-04T12:37:27.997Z,30.43
2022-08-04T12:43:02.503Z,30.14
2022-08-04T12:48:27.337Z,29.81
2022-08-04T12:53:54.343Z,29.58
2022-08-04T12:59:16.333Z,29.18
2022-08-04T13:04:50.383Z,28.72
2022-08-04T13:10:18.320Z,28.60
2022-08-04T13:15:47.612Z,28.45
2022-08-04T13:21:50.415Z,28.67
2022-08-04T13:34:53.424Z,28.86
2022-08-04T13:40:17.248Z,29.03
2022-08-04T13:46:12.344Z,29.02
2022-08-04T13:51:58.073Z,29.17
2022-08-04T13:57:31.711Z,29.17
2022-08-04T14:03:18.997Z,29.11
2022-08-04T14:09:02.652Z,29.01
2022-08-04T14:14:30.525Z,28.93
2022-08-04T14:19:55.505Z,28.82
2022-08-04T14:25:20.847Z,28.59
2022-08-04T14:30:49.643Z,28.39
2022-08-04T14:36:18.175Z,28.17
2022-08-04T14:41:55.401Z,27.94
2022-08-04T14:47:52.912Z,27.54
2022-08-04T14:53:23.866Z,27.37
2022-08-04T14:58:59.517Z,27.26
2022-08-04T15:04:27.072Z,26.89
2022-08-04T15:09:49.953Z,27.15
2022-08-04T15:15:35.948Z,26.83
2022-08-04T15:21:03.413Z,26.73
2022-08-04T15:26:39.848Z,26.84
2022-08-04T15:32:09.453Z,26.77
2022-08-04T15:37:49.777Z,26.55
2022-08-04T15:50:02.799Z,26.61
2022-08-04T15:55:45.599Z,26.39
2022-08-04T16:01:15.676Z,26.29
2022-08-04T16:06:38.762Z,26.11
2022-08-04T16:12:01.227Z,25.77
2022-08-04T16:17:24.024Z,25.65
2022-08-04T16:22:52.167Z,25.69
2022-08-04T16:28:35.879Z,25.52
2022-08-04T16:34:30.780Z,25.37
2022-08-04T16:39:50.532Z,25.19
2022-08-04T16:45:15.221Z,25.01
2022-08-04T16:51:04.535Z,24.79
2022-08-04T16:56:35.027Z,24.46
2022-08-04T17:01:57.945Z,24.38
2022-08-04T17:07:20.341Z,24.22
2022-08-04T17:12:42.353Z,23.94
2022-08-04T17:18:23.688Z,23.89
2022-08-04T17:24:15.276Z,23.66
2022-08-04T17:29:44.808Z,23.42
2022-08-04T17:35:07.796Z,23.30
2022-08-04T17:40:29.981Z,23.15
2022-08-04T17:46:28.508Z,23.08
2022-08-04T17:52:04.931Z,22.80
2022-08-04T17:57:32.742Z,22.59
2022-08-04T18:02:57.375Z,22.56
2022-08-04T18:08:37.829Z,22.15
2022-08-04T18:14:12.473Z,22.12
2022-08-04T18:19:46.161Z,22.13
2022-08-04T18:25:22.192Z,21.82
2022-08-04T18:31:07.751Z,21.67
2022-08-04T18:36:55.394Z,21.50
2022-08-04T18:42:26.198Z,21.39
2022-08-04T18:47:58.461Z,21.23
2022-08-04T18:53:22.072Z,21.33
2022-08-04T18:58:49.226Z,21.47
2022-08-04T19:04:32.968Z,21.38
2022-08-04T19:09:57.564Z,21.03
2022-08-04T19:15:34.434Z,21.19
2022-08-04T19:20:57.416Z,21.00
2022-08-04T19:32:03.948Z,20.84
2022-08-04T19:37:58.559Z,20.74
2022-08-04T19:43:22.890Z,20.55
2022-08-04T19:48:59.080Z,20.57
2022-08-04T19:54:27.376Z,20.47
2022-08-04T20:07:41.002Z,20.22
2022-08-04T20:13:10.377Z,20.18
2022-08-04T20:18:55.625Z,19.93
2022-08-04T20:24:38.950Z,20.04
2022-08-04T20:29:58.038Z,20.01
2022-08-04T20:35:26.800Z,20.07
2022-08-04T20:40:50.016Z,19.99
2022-08-04T20:46:18.224Z,19.61
2022-08-04T20:51:45.231Z,19.76
2022-08-04T20:57:14.078Z,19.38
2022-08-04T21:02:39.269Z,19.46
2022-08-04T21:08:06.104Z,19.16
2022-08-04T21:13:52.342Z,19.13
2022-08-04T21:19:14.340Z,19.01
2022-08-04T21:24:38.587Z,19.04
2022-08-04T21:30:02.394Z,18.94
2022-08-04T21:35:36.927Z,18.86
2022-08-04T21:41:02.123Z,18.78
2022-08-04T21:46:25.210Z,18.90
2022-08-04T21:52:00.444Z,18.80
2022-08-04T21:57:25.100Z,18.81
2022-08-04T22:02:53.557Z,18.82
2022-08-04T22:08:20.005Z,18.84
2022-08-04T22:13:52.395Z,18.71
2022-08-04T22:19:39.845Z,18.59
2022-08-04T22:25:13.363Z,18.59
2022-08-04T22:30:37.987Z,18.51
2022-08-04T22:36:08.562Z,18.36
2022-08-04T22:41:33.788Z,18.22
2022-08-04T22:53:49.346Z,18.01
2022-08-04T23:00:15.527Z,17.71
2022-08-04T23:06:01.206Z,17.81
2022-08-04T23:11:34.382Z,17.89
2022-08-04T23:16:57.763Z,17.62
2022-08-04T23:22:41.763Z,17.98
2022-08-04T23:28:03.651Z,17.77
2022-08-04T23:33:51.599Z,17.52
2022-08-04T23:39:11.996Z,17.75
2022-08-04T23:44:34.276Z,17.59
2022-08-04T23:49:58.288Z,17.58
2022-08-04T23:55:21.277Z,17.53
